Time;durP1;ratioP1;P1;durP2;ratioP2;P2;SDS_P1;SDS_P2;PMS_P1;PMS_P2;Temp;Humidity;BMP_temperature;BMP_pressure;BME280_temperature;BME280_humidity;BME280_pressure;Samples;Min_cycle;Max_cycle;Signal;HPM_P1;HPM_P2
2021/08/08 00:02:27;;;;;;;;;3.00;3.00;;;;;;;;4972730;28;8848;-80
2021/08/08 00:04:54;;;;;;;;;4.50;4.00;;;;;;;;4986029;28;8908;-82
2021/08/08 00:07:21;;;;;;;;;2.75;1.75;;;;;;;;4984832;28;8889;-81
2021/08/08 00:09:50;;;;;;;;;5.00;3.75;;;;;;;;4973671;28;8881;-81
2021/08/08 00:12:17;;;;;;;;;4.00;3.00;;;;;;;;4984653;28;8995;-79
2021/08/08 00:14:44;;;;;;;;;2.25;2.00;;;;;;;;4985641;28;9025;-81
2021/08/08 00:17:11;;;;;;;;;2.00;2.00;;;;;;;;4985220;28;8903;-81
2021/08/08 00:19:39;;;;;;;;;1.25;1.25;;;;;;;;4985617;28;8889;-81
2021/08/08 00:22:06;;;;;;;;;3.50;2.25;;;;;;;;4985613;28;8853;-81
2021/08/08 00:24:33;;;;;;;;;3.25;3.25;;;;;;;;4984800;28;8907;-80
2021/08/08 00:27:02;;;;;;;;;1.50;1.50;;;;;;;;4985512;28;8869;-82
2021/08/08 00:29:30;;;;;;;;;3.50;2.75;;;;;;;;4984292;28;8889;-83
2021/08/08 00:31:57;;;;;;;;;4.50;3.00;;;;;;;;4972010;28;8841;-82
2021/08/08 00:34:24;;;;;;;;;3.50;3.00;;;;;;;;4984836;28;8873;-81
2021/08/08 00:36:51;;;;;;;;;3.75;2.25;;;;;;;;4984685;28;8853;-83
2021/08/08 00:39:20;;;;;;;;;2.00;2.00;;;;;;;;4984967;28;8865;-81
2021/08/08 00:41:48;;;;;;;;;3.00;2.75;;;;;;;;4984583;28;8889;-81
2021/08/08 00:44:16;;;;;;;;;2.75;2.00;;;;;;;;4985507;28;8899;-81
2021/08/08 00:46:44;;;;;;;;;2.00;2.00;;;;;;;;4966425;28;8881;-80
2021/08/08 00:49:11;;;;;;;;;3.75;2.50;;;;;;;;4985530;28;9003;-82
2021/08/08 00:51:40;;;;;;;;;3.25;3.25;;;;;;;;4984759;28;9015;-81
2021/08/08 00:54:07;;;;;;;;;5.00;3.00;;;;;;;;4985069;28;9009;-81
2021/08/08 00:56:35;;;;;;;;;4.00;2.75;;;;;;;;4984908;28;8865;-81
2021/08/08 00:59:02;;;;;;;;;1.00;1.00;;;;;;;;4984788;28;8872;-81
2021/08/08 01:01:36;;;;;;;;;4.00;3.00;;;;;;;;4984667;28;8825;-81
2021/08/08 01:04:03;;;;;;;;;2.25;2.25;;;;;;;;4966394;28;8876;-82
2021/08/08 01:06:35;;;;;;;;;3.75;3.75;;;;;;;;4985145;28;8884;-81
2021/08/08 01:09:05;;;;;;;;;1.25;1.25;;;;;;;;4971578;28;8866;-82
2021/08/08 01:11:33;;;;;;;;;4.00;2.75;;;;;;;;4984658;28;8907;-82
2021/08/08 01:14:01;;;;;;;;;3.00;2.00;;;;;;;;4984225;28;8885;-82
2021/08/08 01:16:30;;;;;;;;;3.00;3.00;;;;;;;;4984234;28;8937;-81
2021/08/08 01:18:59;;;;;;;;;4.00;2.00;;;;;;;;4985151;28;8891;-80
2021/08/08 01:21:28;;;;;;;;;2.75;2.25;;;;;;;;4983657;28;9197;-81
2021/08/08 01:23:59;;;;;;;;;0.00;0.00;;;;;;;;4984858;28;8886;-81
2021/08/08 01:26:27;;;;;;;;;3.75;2.00;;;;;;;;4966806;28;9719;-81
2021/08/08 01:28:55;;;;;;;;;2.25;2.25;;;;;;;;4984415;28;8894;-81
2021/08/08 01:31:23;;;;;;;;;3.00;2.25;;;;;;;;4984147;28;8879;-82
2021/08/08 01:33:51;;;;;;;;;2.25;2.00;;;;;;;;4972867;28;8880;-82
2021/08/08 01:36:18;;;;;;;;;2.50;2.50;;;;;;;;4987219;28;8874;-81
2021/08/08 01:38:55;;;;;;;;;1.75;1.75;;;;;;;;4981590;28;8891;-80
2021/08/08 01:41:28;;;;;;;;;1.00;1.00;;;;;;;;4982471;28;8895;-82
2021/08/08 01:43:57;;;;;;;;;5.25;2.00;;;;;;;;4988243;28;8916;-82
2021/08/08 01:46:25;;;;;;;;;2.25;2.00;;;;;;;;4987791;28;8906;-82
2021/08/08 01:48:55;;;;;;;;;3.00;3.00;;;;;;;;4988480;28;8885;-84
2021/08/08 01:51:23;;;;;;;;;4.75;2.00;;;;;;;;4987430;28;8893;-83
2021/08/08 01:53:50;;;;;;;;;2.00;2.00;;;;;;;;4988509;28;8873;-82
2021/08/08 01:56:18;;;;;;;;;2.50;2.00;;;;;;;;4986864;28;8877;-81
2021/08/08 01:58:46;;;;;;;;;2.00;2.00;;;;;;;;4988376;28;9807;-81
2021/08/08 02:01:14;;;;;;;;;2.00;1.75;;;;;;;;4987060;28;8858;-82
2021/08/08 02:03:42;;;;;;;;;2.00;2.00;;;;;;;;4970572;28;9680;-81
2021/08/08 02:06:11;;;;;;;;;2.25;1.75;;;;;;;;4987951;28;8882;-82
2021/08/08 02:08:38;;;;;;;;;1.25;0.75;;;;;;;;4987587;28;9037;-81
2021/08/08 02:11:06;;;;;;;;;2.00;2.00;;;;;;;;4987932;28;9692;-81
2021/08/08 02:13:33;;;;;;;;;2.00;2.00;;;;;;;;4986657;28;8861;-82
2021/08/08 02:16:02;;;;;;;;;1.25;1.25;;;;;;;;4983984;28;8918;-81
2021/08/08 02:18:29;;;;;;;;;4.00;4.00;;;;;;;;4945942;28;8899;-80
2021/08/08 02:20:56;;;;;;;;;5.00;1.50;;;;;;;;4987935;28;8857;-82
2021/08/08 02:23:24;;;;;;;;;1.75;1.00;;;;;;;;4987833;28;8873;-81
2021/08/08 02:25:51;;;;;;;;;4.00;2.25;;;;;;;;4986763;28;8873;-81
2021/08/08 02:28:19;;;;;;;;;7.00;2.75;;;;;;;;4987942;28;8865;-82
2021/08/08 02:30:46;;;;;;;;;2.00;2.00;;;;;;;;4980103;28;9624;-81
2021/08/08 02:33:15;;;;;;;;;0.00;0.00;;;;;;;;4980921;28;8878;-84
2021/08/08 02:35:43;;;;;;;;;2.50;2.50;;;;;;;;4963254;28;8902;-83
2021/08/08 02:38:10;;;;;;;;;1.25;1.25;;;;;;;;4948096;28;9600;-82
2021/08/08 02:40:38;;;;;;;;;5.00;2.75;;;;;;;;4974701;28;9790;-82
2021/08/08 02:43:05;;;;;;;;;3.50;2.00;;;;;;;;4969709;28;8906;-81
2021/08/08 02:45:33;;;;;;;;;2.00;2.00;;;;;;;;4987070;28;8896;-81
2021/08/08 02:48:00;;;;;;;;;3.50;2.25;;;;;;;;4986531;28;8896;-80
2021/08/08 02:50:29;;;;;;;;;2.00;2.00;;;;;;;;4968911;28;8891;-81
2021/08/08 02:52:56;;;;;;;;;3.75;2.50;;;;;;;;4986655;28;8880;-81
2021/08/08 02:55:24;;;;;;;;;1.00;1.00;;;;;;;;4969792;28;8895;-81
2021/08/08 02:57:51;;;;;;;;;2.00;2.00;;;;;;;;4987010;28;8867;-80
2021/08/08 03:00:18;;;;;;;;;3.00;3.00;;;;;;;;4985981;28;8914;-81
2021/08/08 03:02:46;;;;;;;;;2.00;2.00;;;;;;;;4987335;28;8872;-80
2021/08/08 03:05:13;;;;;;;;;3.25;2.00;;;;;;;;4977247;28;8879;-80
2021/08/08 03:07:42;;;;;;;;;4.00;3.00;;;;;;;;4980824;28;8884;-82
2021/08/08 03:10:10;;;;;;;;;1.50;1.50;;;;;;;;4976418;28;9056;-80
2021/08/08 03:12:38;;;;;;;;;2.00;2.00;;;;;;;;4986420;28;8896;-82
2021/08/08 03:15:06;;;;;;;;;2.00;1.50;;;;;;;;4968501;28;8881;-81
2021/08/08 03:17:33;;;;;;;;;1.75;1.00;;;;;;;;4986692;28;8897;-81
2021/08/08 03:20:00;;;;;;;;;2.25;2.25;;;;;;;;4986641;28;8861;-82
2021/08/08 03:22:28;;;;;;;;;4.00;2.00;;;;;;;;4985841;28;8892;-81
2021/08/08 03:24:56;;;;;;;;;1.75;1.75;;;;;;;;4987020;28;9068;-81
2021/08/08 03:27:23;;;;;;;;;3.00;2.25;;;;;;;;4985397;28;8883;-80
2021/08/08 03:29:51;;;;;;;;;2.00;2.00;;;;;;;;4986785;28;8889;-82
2021/08/08 03:32:18;;;;;;;;;3.00;3.00;;;;;;;;4985563;28;8836;-80
2021/08/08 03:34:45;;;;;;;;;2.50;2.50;;;;;;;;4986609;28;8853;-82
2021/08/08 03:37:13;;;;;;;;;2.00;2.00;;;;;;;;4985985;28;8857;-81
2021/08/08 03:39:40;;;;;;;;;2.75;2.75;;;;;;;;4969038;28;8872;-82
2021/08/08 03:42:09;;;;;;;;;2.75;2.75;;;;;;;;4986724;28;8857;-81
2021/08/08 03:44:37;;;;;;;;;1.00;1.00;;;;;;;;4985401;28;9720;-79
2021/08/08 03:47:04;;;;;;;;;2.75;2.00;;;;;;;;4986171;28;8889;-80
2021/08/08 03:49:31;;;;;;;;;3.25;3.00;;;;;;;;4985211;28;8876;-82
2021/08/08 03:51:59;;;;;;;;;3.50;2.75;;;;;;;;4985761;28;8877;-81
2021/08/08 03:54:26;;;;;;;;;4.50;2.75;;;;;;;;4984862;28;8865;-83
2021/08/08 03:56:53;;;;;;;;;2.25;2.25;;;;;;;;4974189;28;8888;-81
2021/08/08 03:59:22;;;;;;;;;5.00;3.00;;;;;;;;4986104;28;8904;-81
2021/08/08 04:01:49;;;;;;;;;2.75;2.75;;;;;;;;4983859;28;8838;-80
2021/08/08 04:04:16;;;;;;;;;2.50;2.50;;;;;;;;4985836;28;8979;-82
2021/08/08 04:06:44;;;;;;;;;2.75;2.75;;;;;;;;4985066;28;9017;-80
2021/08/08 04:09:11;;;;;;;;;2.00;2.00;;;;;;;;4986190;28;8890;-80
2021/08/08 04:11:38;;;;;;;;;5.25;3.25;;;;;;;;4985208;28;8882;-81
2021/08/08 04:14:06;;;;;;;;;4.00;3.00;;;;;;;;4985448;28;8869;-80
2021/08/08 04:16:34;;;;;;;;;3.00;3.00;;;;;;;;4985596;28;8911;-82
2021/08/08 04:19:02;;;;;;;;;4.50;3.00;;;;;;;;4984688;28;9685;-82
2021/08/08 04:21:29;;;;;;;;;2.50;2.25;;;;;;;;4985323;28;8868;-81
2021/08/08 04:23:56;;;;;;;;;2.25;2.25;;;;;;;;4984978;28;8874;-81
2021/08/08 04:26:23;;;;;;;;;8.00;3.75;;;;;;;;4985263;28;8877;-81
2021/08/08 04:28:51;;;;;;;;;2.00;2.00;;;;;;;;4984664;28;8881;-81
2021/08/08 04:31:18;;;;;;;;;3.75;3.75;;;;;;;;4967435;28;8815;-83
2021/08/08 04:33:46;;;;;;;;;4.00;4.00;;;;;;;;4985162;28;8870;-83
2021/08/08 04:36:14;;;;;;;;;2.75;2.75;;;;;;;;4984725;28;8923;-81
2021/08/08 04:38:41;;;;;;;;;3.75;3.75;;;;;;;;4985924;28;8853;-81
2021/08/08 04:41:08;;;;;;;;;4.50;3.25;;;;;;;;4984669;28;8960;-81
2021/08/08 04:43:35;;;;;;;;;2.25;2.00;;;;;;;;4985305;28;8888;-81
2021/08/08 04:46:03;;;;;;;;;2.75;2.00;;;;;;;;4983983;28;9792;-80
2021/08/08 04:48:30;;;;;;;;;6.50;4.00;;;;;;;;4985543;28;8997;-82
2021/08/08 04:50:59;;;;;;;;;4.00;4.00;;;;;;;;4984953;28;8900;-80
2021/08/08 04:53:26;;;;;;;;;5.00;3.25;;;;;;;;4984436;28;8916;-80
2021/08/08 04:55:54;;;;;;;;;9.00;5.00;;;;;;;;4985221;28;8867;-81
2021/08/08 04:58:22;;;;;;;;;4.25;3.00;;;;;;;;4984274;28;9672;-80
2021/08/08 05:00:49;;;;;;;;;7.25;6.00;;;;;;;;4983611;28;8798;-81
2021/08/08 05:03:17;;;;;;;;;3.00;3.00;;;;;;;;4983893;28;8903;-81
2021/08/08 05:05:44;;;;;;;;;7.25;4.75;;;;;;;;4985387;28;8890;-81
2021/08/08 05:08:13;;;;;;;;;4.00;4.00;;;;;;;;4984300;28;9614;-81
2021/08/08 05:10:40;;;;;;;;;4.50;4.50;;;;;;;;4984518;28;8972;-80
2021/08/08 05:13:07;;;;;;;;;6.50;4.25;;;;;;;;4984301;28;8988;-80
2021/08/08 05:15:34;;;;;;;;;2.00;2.00;;;;;;;;4983579;28;8877;-80
2021/08/08 05:18:02;;;;;;;;;3.75;3.75;;;;;;;;4985016;28;8881;-80
2021/08/08 05:20:29;;;;;;;;;4.00;4.00;;;;;;;;4983489;28;8898;-81
2021/08/08 05:22:56;;;;;;;;;4.50;4.50;;;;;;;;4985179;28;8872;-81
2021/08/08 05:25:25;;;;;;;;;6.25;3.25;;;;;;;;4984256;28;8853;-80
2021/08/08 05:27:52;;;;;;;;;7.00;5.50;;;;;;;;4984664;28;8885;-80
2021/08/08 05:30:19;;;;;;;;;6.50;3.50;;;;;;;;4983969;28;8889;-80
2021/08/08 05:32:46;;;;;;;;;5.50;4.00;;;;;;;;4983978;28;8880;-81
2021/08/08 05:35:14;;;;;;;;;3.50;3.00;;;;;;;;4967655;28;8903;-80
2021/08/08 05:37:41;;;;;;;;;5.25;3.00;;;;;;;;4983650;28;9012;-80
2021/08/08 05:40:09;;;;;;;;;3.25;3.25;;;;;;;;4985371;28;8989;-81
2021/08/08 05:42:38;;;;;;;;;3.50;3.50;;;;;;;;4984188;28;8980;-80
2021/08/08 05:45:07;;;;;;;;;4.75;4.75;;;;;;;;4984596;28;8876;-82
2021/08/08 05:47:34;;;;;;;;;3.50;3.50;;;;;;;;4985182;28;9003;-80
2021/08/08 05:50:01;;;;;;;;;6.00;4.00;;;;;;;;4983926;28;8991;-81
2021/08/08 05:52:29;;;;;;;;;3.50;3.50;;;;;;;;4984583;28;8892;-81
2021/08/08 05:54:56;;;;;;;;;7.25;4.75;;;;;;;;4983622;28;8888;-81
2021/08/08 05:57:23;;;;;;;;;4.00;4.00;;;;;;;;4973862;28;8913;-81
2021/08/08 05:59:52;;;;;;;;;4.00;4.00;;;;;;;;4981922;28;9775;-80
2021/08/08 06:02:19;;;;;;;;;5.00;5.00;;;;;;;;4983493;28;8847;-80
2021/08/08 06:04:49;;;;;;;;;4.75;3.00;;;;;;;;4984573;28;8870;-80
2021/08/08 06:07:16;;;;;;;;;4.25;4.00;;;;;;;;4983682;28;9707;-80
2021/08/08 06:09:44;;;;;;;;;4.00;4.00;;;;;;;;4984966;28;8869;-81
2021/08/08 06:12:11;;;;;;;;;4.00;4.00;;;;;;;;4983526;28;8871;-82
2021/08/08 06:14:38;;;;;;;;;4.00;3.25;;;;;;;;4984624;28;8964;-80
2021/08/08 06:17:07;;;;;;;;;3.75;3.75;;;;;;;;4983038;28;8911;-80
2021/08/08 06:19:34;;;;;;;;;4.25;4.00;;;;;;;;4984380;28;9015;-81
2021/08/08 06:22:01;;;;;;;;;7.75;4.50;;;;;;;;4984135;28;8857;-82
2021/08/08 06:24:29;;;;;;;;;6.00;4.25;;;;;;;;4985281;28;8979;-82
2021/08/08 06:26:56;;;;;;;;;4.00;2.25;;;;;;;;4988143;28;9220;-81
2021/08/08 06:29:23;;;;;;;;;5.00;4.25;;;;;;;;4987252;28;8999;-82
2021/08/08 06:31:51;;;;;;;;;3.00;3.00;;;;;;;;4987109;28;8841;-81
2021/08/08 06:34:20;;;;;;;;;2.25;2.25;;;;;;;;4986756;28;8882;-81
2021/08/08 06:36:47;;;;;;;;;4.75;3.25;;;;;;;;4987964;28;9656;-81
2021/08/08 06:39:14;;;;;;;;;5.00;5.00;;;;;;;;4987078;28;8876;-81
2021/08/08 06:41:42;;;;;;;;;4.25;4.25;;;;;;;;4969890;28;8896;-80
2021/08/08 06:44:10;;;;;;;;;2.75;2.75;;;;;;;;4984327;28;9580;-80
2021/08/08 06:46:37;;;;;;;;;2.00;2.00;;;;;;;;4986586;28;8879;-80
2021/08/08 06:49:05;;;;;;;;;4.25;3.25;;;;;;;;4969996;28;8974;-82
2021/08/08 06:51:34;;;;;;;;;5.00;2.00;;;;;;;;4986486;28;8869;-81
2021/08/08 06:54:01;;;;;;;;;4.00;4.00;;;;;;;;4970076;28;8929;-80
2021/08/08 06:56:29;;;;;;;;;4.00;4.00;;;;;;;;4986601;28;8873;-81
2021/08/08 06:58:56;;;;;;;;;5.00;2.50;;;;;;;;4986877;28;8917;-82
2021/08/08 07:01:23;;;;;;;;;4.00;4.00;;;;;;;;4985394;28;8817;-82
2021/08/08 07:03:51;;;;;;;;;6.25;4.00;;;;;;;;4982233;28;8873;-81
2021/08/08 07:06:18;;;;;;;;;3.00;3.00;;;;;;;;4982297;28;9723;-81
2021/08/08 07:08:47;;;;;;;;;3.00;3.00;;;;;;;;4987973;28;8976;-84
2021/08/08 07:11:14;;;;;;;;;5.00;4.00;;;;;;;;4987722;28;8895;-86
2021/08/08 07:13:42;;;;;;;;;7.25;3.00;;;;;;;;4976260;28;8887;-85
2021/08/08 07:16:10;;;;;;;;;3.00;3.00;;;;;;;;4981448;28;9035;-85
2021/08/08 07:18:37;;;;;;;;;2.00;2.00;;;;;;;;4986981;28;8889;-84
2021/08/08 07:21:05;;;;;;;;;3.50;3.50;;;;;;;;4980794;28;8915;-85
2021/08/08 07:23:32;;;;;;;;;3.25;3.25;;;;;;;;4987426;28;8877;-85
2021/08/08 07:26:01;;;;;;;;;2.50;2.50;;;;;;;;4984866;28;8890;-85
2021/08/08 07:28:28;;;;;;;;;0.75;0.75;;;;;;;;4987168;28;8881;-85
2021/08/08 07:30:56;;;;;;;;;3.00;3.00;;;;;;;;4951233;28;9596;-85
2021/08/08 07:33:23;;;;;;;;;3.00;3.00;;;;;;;;4980189;28;8866;-84
2021/08/08 07:38:34;;;;;;;;;3.75;3.75;;;;;;;;4979557;28;8889;-84
2021/08/08 07:41:02;;;;;;;;;4.75;3.50;;;;;;;;4983923;28;8845;-84
2021/08/08 07:43:30;;;;;;;;;4.25;4.25;;;;;;;;4984405;28;8866;-84
2021/08/08 07:48:52;;;;;;;;;5.25;4.00;;;;;;;;4947137;28;8861;-85
2021/08/08 07:51:20;;;;;;;;;5.50;4.75;;;;;;;;4984581;28;8877;-85
2021/08/08 07:53:47;;;;;;;;;4.50;3.50;;;;;;;;4985812;28;8877;-82
2021/08/08 07:56:16;;;;;;;;;5.00;3.00;;;;;;;;4984603;28;8881;-81
2021/08/08 07:58:52;;;;;;;;;2.50;2.50;;;;;;;;4985163;28;8869;-83
2021/08/08 08:01:21;;;;;;;;;3.50;3.50;;;;;;;;4971077;28;8821;-85
2021/08/08 08:03:48;;;;;;;;;5.00;3.00;;;;;;;;4968280;28;8873;-83
2021/08/08 08:06:16;;;;;;;;;6.00;5.75;;;;;;;;4985169;28;8894;-83
2021/08/08 08:08:43;;;;;;;;;3.00;3.00;;;;;;;;4985010;28;8919;-81
2021/08/08 08:11:11;;;;;;;;;3.75;3.75;;;;;;;;4958719;28;8877;-81
2021/08/08 08:13:40;;;;;;;;;3.50;3.50;;;;;;;;4967805;28;8920;-82
2021/08/08 08:16:07;;;;;;;;;4.00;2.75;;;;;;;;4986094;28;9695;-82
2021/08/08 08:18:35;;;;;;;;;4.25;4.25;;;;;;;;4963695;28;8923;-85
2021/08/08 08:21:02;;;;;;;;;4.25;4.25;;;;;;;;4982996;28;8873;-82
2021/08/08 08:23:29;;;;;;;;;5.00;3.00;;;;;;;;4984698;28;8863;-81
2021/08/08 08:25:57;;;;;;;;;4.75;4.00;;;;;;;;4985068;28;8849;-82
2021/08/08 08:28:29;;;;;;;;;4.75;3.75;;;;;;;;4981085;28;8989;-80
2021/08/08 08:30:58;;;;;;;;;2.50;2.50;;;;;;;;4983967;28;8809;-84
2021/08/08 08:33:26;;;;;;;;;3.00;3.00;;;;;;;;4985198;28;8890;-84
2021/08/08 08:35:53;;;;;;;;;3.25;3.25;;;;;;;;4949403;28;8986;-83
2021/08/08 08:38:21;;;;;;;;;4.00;4.00;;;;;;;;4984704;28;8857;-80
2021/08/08 08:40:48;;;;;;;;;3.25;3.25;;;;;;;;4981560;28;9023;-82
2021/08/08 08:43:16;;;;;;;;;3.00;1.50;;;;;;;;4984293;28;8984;-84
2021/08/08 08:45:45;;;;;;;;;2.50;2.50;;;;;;;;4979830;28;8907;-83
2021/08/08 08:48:19;;;;;;;;;6.25;3.00;;;;;;;;4961973;28;8935;-83
2021/08/08 08:50:53;;;;;;;;;3.50;3.00;;;;;;;;4980741;28;8861;-84
2021/08/08 08:53:22;;;;;;;;;4.00;4.00;;;;;;;;4980977;28;8868;-83
2021/08/08 08:55:50;;;;;;;;;4.25;3.50;;;;;;;;4981571;28;9673;-82
2021/08/08 08:58:18;;;;;;;;;4.75;3.00;;;;;;;;4983040;28;8852;-82
2021/08/08 09:00:46;;;;;;;;;4.75;4.75;;;;;;;;4991831;28;8823;-83
2021/08/08 09:03:14;;;;;;;;;5.00;3.00;;;;;;;;4981472;28;8855;-80
2021/08/08 09:05:42;;;;;;;;;3.50;2.25;;;;;;;;4982071;28;8861;-84
2021/08/08 09:08:09;;;;;;;;;2.75;2.75;;;;;;;;4994480;28;8855;-84
2021/08/08 09:10:36;;;;;;;;;4.00;4.00;;;;;;;;4985358;28;8882;-83
2021/08/08 09:13:05;;;;;;;;;3.75;3.75;;;;;;;;4978133;28;8896;-85
2021/08/08 09:15:34;;;;;;;;;2.75;2.75;;;;;;;;4982480;28;8887;-84
2021/08/08 09:18:15;;;;;;;;;3.25;3.25;;;;;;;;4985771;28;8882;-86
2021/08/08 09:20:43;;;;;;;;;4.75;3.00;;;;;;;;4974160;28;8869;-86
2021/08/08 09:23:10;;;;;;;;;3.00;3.00;;;;;;;;4972062;28;8869;-85
2021/08/08 09:25:38;;;;;;;;;4.00;3.00;;;;;;;;4985092;28;8877;-83
2021/08/08 09:28:08;;;;;;;;;2.00;2.00;;;;;;;;4984003;28;8896;-86
2021/08/08 09:30:38;;;;;;;;;4.00;4.00;;;;;;;;4983512;28;8835;-83
2021/08/08 09:33:08;;;;;;;;;2.25;2.25;;;;;;;;4984170;28;8877;-83
2021/08/08 09:35:38;;;;;;;;;3.00;3.00;;;;;;;;4963404;28;8881;-84
2021/08/08 09:38:08;;;;;;;;;4.50;3.00;;;;;;;;4977669;28;9607;-85
2021/08/08 09:40:37;;;;;;;;;6.75;4.00;;;;;;;;4978149;28;8905;-84
2021/08/08 09:43:05;;;;;;;;;3.25;3.25;;;;;;;;4967818;28;8869;-85
2021/08/08 09:45:38;;;;;;;;;5.00;2.50;;;;;;;;4990144;28;8841;-85
2021/08/08 09:48:07;;;;;;;;;3.00;3.00;;;;;;;;4980613;28;8884;-84
2021/08/08 09:50:36;;;;;;;;;3.80;3.80;;;;;;;;4980759;28;8873;-88
2021/08/08 09:53:05;;;;;;;;;2.00;2.00;;;;;;;;4982413;28;8875;-88
2021/08/08 09:55:35;;;;;;;;;2.40;1.40;;;;;;;;4979091;28;8869;-88
2021/08/08 09:58:02;;;;;;;;;3.00;3.00;;;;;;;;4982120;28;8865;-83
2021/08/08 10:00:31;;;;;;;;;3.00;2.00;;;;;;;;4986393;28;8826;-84
2021/08/08 10:02:59;;;;;;;;;7.50;7.50;;;;;;;;4983222;28;8872;-88
2021/08/08 10:05:28;;;;;;;;;16.75;16.75;;;;;;;;4985097;28;9684;-89
2021/08/08 10:07:57;;;;;;;;;7.25;6.75;;;;;;;;4987155;28;8975;-87
2021/08/08 10:10:25;;;;;;;;;2.60;1.20;;;;;;;;4987019;28;8918;-85
2021/08/08 10:13:25;;;;;;;;;1.00;1.00;;;;;;;;4987033;28;8861;-88
2021/08/08 10:15:53;;;;;;;;;3.20;2.00;;;;;;;;4987330;28;8865;-87
2021/08/08 10:18:24;;;;;;;;;1.00;1.00;;;;;;;;4965098;28;8984;-85
2021/08/08 10:20:57;;;;;;;;;4.20;2.60;;;;;;;;4995484;28;8919;-88
2021/08/08 10:23:28;;;;;;;;;2.00;1.00;;;;;;;;4986499;28;8877;-90
2021/08/08 10:25:55;;;;;;;;;5.00;3.00;;;;;;;;4988330;28;8884;-89
2021/08/08 10:28:23;;;;;;;;;2.60;2.60;;;;;;;;4987928;28;8857;-94
2021/08/08 10:33:47;;;;;;;;;2.60;2.60;;;;;;;;4978285;28;8968;-91
2021/08/08 10:36:20;;;;;;;;;4.60;3.00;;;;;;;;4984829;28;8899;-89
2021/08/08 10:38:50;;;;;;;;;3.00;3.00;;;;;;;;4985114;28;9388;-89
2021/08/08 10:41:17;;;;;;;;;4.60;3.00;;;;;;;;4976269;28;9021;-92
2021/08/08 10:43:45;;;;;;;;;3.00;3.00;;;;;;;;4988345;28;8884;-83
2021/08/08 10:46:15;;;;;;;;;2.00;2.00;;;;;;;;4968312;28;8870;-84
2021/08/08 10:48:44;;;;;;;;;2.00;2.00;;;;;;;;4976070;28;9025;-94
2021/08/08 10:51:23;;;;;;;;;3.00;3.00;;;;;;;;4985623;28;8865;-88
2021/08/08 10:54:06;;;;;;;;;2.80;2.20;;;;;;;;4968485;28;9754;-87
2021/08/08 10:56:41;;;;;;;;;3.40;3.00;;;;;;;;4987851;28;8887;-91
2021/08/08 10:59:15;;;;;;;;;2.80;2.80;;;;;;;;4983735;28;8882;-86
2021/08/08 11:01:43;;;;;;;;;4.00;3.00;;;;;;;;4987498;28;8811;-90
2021/08/08 11:04:10;;;;;;;;;1.60;1.60;;;;;;;;4986803;28;8890;-86
2021/08/08 11:06:38;;;;;;;;;2.20;2.20;;;;;;;;4988373;28;8930;-90
2021/08/08 11:09:07;;;;;;;;;4.40;3.20;;;;;;;;4970620;28;8857;-90
2021/08/08 11:11:36;;;;;;;;;4.00;1.80;;;;;;;;4974906;28;8877;-93
2021/08/08 11:14:13;;;;;;;;;4.00;2.80;;;;;;;;4988710;28;8872;-92
2021/08/08 11:16:41;;;;;;;;;2.00;2.00;;;;;;;;4985390;28;8872;-91
2021/08/08 11:19:09;;;;;;;;;2.40;2.00;;;;;;;;4965506;28;8883;-89
2021/08/08 11:21:36;;;;;;;;;3.00;3.00;;;;;;;;4986566;28;8873;-88
2021/08/08 11:24:09;;;;;;;;;1.60;1.40;;;;;;;;4988347;28;8901;-88
2021/08/08 11:26:37;;;;;;;;;2.00;2.00;;;;;;;;4986753;28;8873;-84
2021/08/08 11:29:06;;;;;;;;;3.80;3.80;;;;;;;;4986732;28;8894;-92
2021/08/08 11:31:34;;;;;;;;;2.60;2.60;;;;;;;;4986488;28;8944;-93
2021/08/08 11:34:03;;;;;;;;;2.00;2.00;;;;;;;;4982941;28;8896;-89
2021/08/08 11:36:33;;;;;;;;;2.80;2.80;;;;;;;;4981880;28;8883;-91
2021/08/08 11:39:02;;;;;;;;;3.20;2.00;;;;;;;;4984252;28;8904;-86
2021/08/08 11:41:31;;;;;;;;;3.80;2.00;;;;;;;;4985274;28;8894;-85
2021/08/08 11:44:06;;;;;;;;;1.80;1.80;;;;;;;;4984417;28;8859;-91
2021/08/08 11:46:34;;;;;;;;;4.00;2.40;;;;;;;;4962447;28;8911;-90
2021/08/08 11:49:01;;;;;;;;;1.60;1.60;;;;;;;;4987176;28;8914;-90
2021/08/08 11:51:29;;;;;;;;;1.60;1.60;;;;;;;;4982565;28;9011;-88
2021/08/08 11:53:57;;;;;;;;;3.80;2.00;;;;;;;;4984736;28;8911;-90
2021/08/08 11:56:28;;;;;;;;;2.00;2.00;;;;;;;;4974561;28;9774;-89
2021/08/08 11:58:59;;;;;;;;;2.00;2.00;;;;;;;;4980928;28;8882;-89
2021/08/08 12:01:27;;;;;;;;;0.00;0.00;;;;;;;;4984528;28;8798;-87
2021/08/08 12:04:06;;;;;;;;;2.00;2.00;;;;;;;;4982617;28;8895;-90
2021/08/08 12:06:33;;;;;;;;;3.80;3.80;;;;;;;;4983294;28;8861;-88
2021/08/08 12:09:00;;;;;;;;;2.00;2.00;;;;;;;;4984336;28;9707;-89
2021/08/08 12:11:28;;;;;;;;;3.00;3.00;;;;;;;;4968122;28;8885;-86
2021/08/08 12:14:15;;;;;;;;;4.40;2.60;;;;;;;;4984268;28;8869;-88
2021/08/08 12:16:43;;;;;;;;;2.80;2.80;;;;;;;;4980356;28;8891;-88
2021/08/08 12:19:10;;;;;;;;;2.20;1.40;;;;;;;;4966505;28;8867;-85
2021/08/08 12:21:39;;;;;;;;;4.00;4.00;;;;;;;;4986202;28;8886;-86
2021/08/08 12:24:08;;;;;;;;;1.80;1.80;;;;;;;;4983550;28;8982;-87
2021/08/08 12:26:36;;;;;;;;;3.40;3.00;;;;;;;;4980206;28;8942;-89
2021/08/08 12:29:07;;;;;;;;;1.20;1.20;;;;;;;;4953084;28;8895;-89
2021/08/08 12:31:39;;;;;;;;;2.00;2.00;;;;;;;;4980281;28;8849;-90
2021/08/08 12:34:09;;;;;;;;;2.00;2.00;;;;;;;;4980704;28;8895;-92
2021/08/08 12:36:38;;;;;;;;;1.80;1.80;;;;;;;;4986108;28;8860;-89
2021/08/08 12:39:06;;;;;;;;;2.00;2.00;;;;;;;;4979879;28;8860;-87
2021/08/08 12:41:38;;;;;;;;;2.80;2.80;;;;;;;;4982732;28;8879;-86
2021/08/08 12:44:08;;;;;;;;;5.60;4.20;;;;;;;;4980191;28;8903;-91
2021/08/08 12:46:37;;;;;;;;;2.00;2.00;;;;;;;;4986328;28;8877;-89
2021/08/08 12:49:06;;;;;;;;;1.00;1.00;;;;;;;;4964939;28;8873;-83
2021/08/08 12:51:34;;;;;;;;;5.00;3.00;;;;;;;;4983406;28;8885;-89
2021/08/08 12:54:01;;;;;;;;;3.80;1.80;;;;;;;;4981831;28;8890;-91
2021/08/08 12:56:28;;;;;;;;;2.20;2.20;;;;;;;;4988360;28;8861;-92
2021/08/08 12:58:56;;;;;;;;;2.00;0.80;;;;;;;;4997745;28;8857;-93
2021/08/08 13:01:28;;;;;;;;;4.00;2.60;;;;;;;;4990263;28;8825;-90
2021/08/08 13:03:56;;;;;;;;;2.00;2.00;;;;;;;;4990265;28;8853;-90
2021/08/08 13:06:24;;;;;;;;;1.60;1.60;;;;;;;;4988422;28;8860;-93
2021/08/08 13:08:51;;;;;;;;;2.40;2.40;;;;;;;;4990035;28;8865;-94
2021/08/08 13:11:19;;;;;;;;;1.00;1.00;;;;;;;;4987249;28;8962;-91
2021/08/08 13:13:46;;;;;;;;;1.20;1.20;;;;;;;;4987037;28;8857;-89
2021/08/08 13:16:14;;;;;;;;;1.00;1.00;;;;;;;;4973593;28;8885;-96
2021/08/08 13:18:42;;;;;;;;;1.00;1.00;;;;;;;;4973617;28;8971;-90
2021/08/08 13:21:12;;;;;;;;;0.20;0.20;;;;;;;;4988657;28;8883;-95
2021/08/08 13:23:43;;;;;;;;;0.00;0.00;;;;;;;;5000994;28;8855;-96
2021/08/08 13:26:10;;;;;;;;;1.00;1.00;;;;;;;;4985248;28;8964;-92
2021/08/08 13:28:38;;;;;;;;;1.20;1.20;;;;;;;;4973600;28;8976;-91
2021/08/08 13:31:08;;;;;;;;;1.40;1.40;;;;;;;;4989229;28;9627;-93
2021/08/08 13:33:35;;;;;;;;;1.00;1.00;;;;;;;;4967262;28;8881;-91
2021/08/08 13:36:04;;;;;;;;;1.60;1.60;;;;;;;;4988273;28;8877;-85
2021/08/08 13:38:31;;;;;;;;;1.40;1.00;;;;;;;;4988524;28;8900;-86
2021/08/08 13:40:59;;;;;;;;;2.00;0.00;;;;;;;;4986524;28;9742;-90
2021/08/08 13:43:26;;;;;;;;;2.00;2.00;;;;;;;;4990971;28;8837;-89
2021/08/08 13:45:53;;;;;;;;;2.00;2.00;;;;;;;;4991393;28;8915;-89
2021/08/08 13:48:21;;;;;;;;;1.00;1.00;;;;;;;;4973527;28;8873;-92
2021/08/08 13:50:48;;;;;;;;;1.00;1.00;;;;;;;;4983691;28;8988;-94
2021/08/08 13:53:17;;;;;;;;;2.00;2.00;;;;;;;;4987580;28;8854;-85
2021/08/08 13:55:44;;;;;;;;;2.00;2.00;;;;;;;;4984425;28;8868;-90
2021/08/08 13:58:11;;;;;;;;;1.60;1.60;;;;;;;;4967945;28;8896;-85
2021/08/08 14:00:40;;;;;;;;;2.20;2.20;;;;;;;;4982297;28;8855;-90
2021/08/08 14:03:09;;;;;;;;;2.00;2.00;;;;;;;;4986225;28;8869;-93
2021/08/08 14:05:36;;;;;;;;;2.00;2.00;;;;;;;;4985890;28;8885;-94
2021/08/08 14:08:04;;;;;;;;;2.80;2.80;;;;;;;;4989605;28;8891;-94
2021/08/08 14:10:32;;;;;;;;;4.00;2.00;;;;;;;;4997088;28;8917;-92
2021/08/08 14:13:10;;;;;;;;;2.00;2.00;;;;;;;;4998834;28;8894;-93
2021/08/08 14:15:57;;;;;;;;;2.80;1.00;;;;;;;;4990016;28;9004;-94
2021/08/08 14:18:25;;;;;;;;;2.00;2.00;;;;;;;;4984292;28;9454;-94
2021/08/08 14:20:52;;;;;;;;;3.20;2.40;;;;;;;;4988712;28;8865;-92
2021/08/08 14:23:20;;;;;;;;;1.80;1.80;;;;;;;;4970695;28;8857;-92
2021/08/08 14:25:48;;;;;;;;;0.80;0.80;;;;;;;;4983029;28;8905;-92
2021/08/08 14:28:16;;;;;;;;;0.80;0.80;;;;;;;;4986527;28;8884;-86
2021/08/08 14:30:43;;;;;;;;;3.00;2.00;;;;;;;;5000185;28;8805;-94
2021/08/08 14:33:10;;;;;;;;;1.80;1.80;;;;;;;;4971902;28;8904;-93
2021/08/08 14:35:38;;;;;;;;;1.20;1.20;;;;;;;;4966534;28;8902;-94
2021/08/08 14:38:05;;;;;;;;;3.40;1.60;;;;;;;;4969187;28;8940;-96
2021/08/08 14:40:33;;;;;;;;;2.80;1.80;;;;;;;;4964890;28;8884;-94
2021/08/08 14:43:01;;;;;;;;;2.20;1.00;;;;;;;;4969239;28;8926;-90
2021/08/08 14:45:29;;;;;;;;;2.80;1.80;;;;;;;;4968138;28;8864;-86
2021/08/08 14:47:56;;;;;;;;;2.00;2.00;;;;;;;;4966475;28;8868;-91
2021/08/08 14:50:23;;;;;;;;;3.60;1.60;;;;;;;;4967770;28;8932;-88
2021/08/08 14:52:51;;;;;;;;;2.00;2.00;;;;;;;;4966851;28;8910;-91
2021/08/08 14:55:18;;;;;;;;;0.60;0.60;;;;;;;;4966603;28;8906;-83
2021/08/08 14:57:46;;;;;;;;;0.60;0.60;;;;;;;;4974829;28;8884;-89
2021/08/08 15:00:16;;;;;;;;;0.20;0.20;;;;;;;;4962601;28;8922;-87
2021/08/08 15:02:43;;;;;;;;;0.40;0.40;;;;;;;;4968360;28;8864;-86
2021/08/08 15:05:11;;;;;;;;;0.80;0.80;;;;;;;;4968203;28;9022;-86
2021/08/08 15:07:38;;;;;;;;;2.20;1.60;;;;;;;;4968570;28;8880;-87
2021/08/08 15:10:06;;;;;;;;;0.00;0.00;;;;;;;;4953664;28;8902;-88
2021/08/08 15:12:33;;;;;;;;;1.80;1.80;;;;;;;;4963323;28;8897;-88